createdAt,value
2023-04-17T00:01:24.731Z,0.85
2023-04-17T00:03:52.717Z,0.90
2023-04-17T00:06:19.409Z,0.68
2023-04-17T00:08:46.306Z,0.80
2023-04-17T00:11:12.930Z,0.75
2023-04-17T00:13:39.465Z,0.80
2023-04-17T00:16:06.451Z,1.25
2023-04-17T00:18:32.981Z,0.70
2023-04-17T00:20:59.506Z,0.77
2023-04-17T00:23:26.243Z,0.70
2023-04-17T00:25:52.853Z,0.65
2023-04-17T00:28:19.391Z,0.88
2023-04-17T00:30:46.765Z,0.88
2023-04-17T00:33:13.449Z,0.60
2023-04-17T00:35:40.081Z,1.08
2023-04-17T00:38:08.664Z,0.93
2023-04-17T00:40:35.956Z,1.00
2023-04-17T00:43:04.137Z,0.80
2023-04-17T00:45:31.037Z,0.70
2023-04-17T00:47:59.408Z,0.63
2023-04-17T00:50:28.433Z,0.70
2023-04-17T00:52:55.980Z,0.70
2023-04-17T00:55:23.133Z,0.90
2023-04-17T00:57:50.443Z,1.13
2023-04-17T01:00:18.195Z,0.93
2023-04-17T01:02:45.884Z,0.70
2023-04-17T01:05:12.794Z,0.70
2023-04-17T01:07:40.012Z,1.23
2023-04-17T01:10:07.457Z,1.13
2023-04-17T01:12:33.988Z,1.20
2023-04-17T01:15:00.583Z,0.93
2023-04-17T01:17:27.805Z,1.00
2023-04-17T01:19:55.262Z,0.90
2023-04-17T01:22:22.165Z,0.70
2023-04-17T01:24:49.283Z,0.60
2023-04-17T01:27:15.980Z,0.95
2023-04-17T01:29:43.419Z,0.77
2023-04-17T01:32:10.324Z,0.80
2023-04-17T01:34:37.670Z,0.65
2023-04-17T01:37:04.515Z,0.90
2023-04-17T01:39:31.044Z,0.70
2023-04-17T01:41:58.292Z,1.02
2023-04-17T01:44:24.901Z,1.10
2023-04-17T01:46:51.512Z,1.92
2023-04-17T01:49:18.125Z,1.00
2023-04-17T01:51:44.674Z,0.73
2023-04-17T01:54:11.313Z,0.70
2023-04-17T01:56:37.892Z,0.90
2023-04-17T01:59:04.427Z,1.00
2023-04-17T02:01:31.238Z,0.65
2023-04-17T02:03:58.473Z,0.85
2023-04-17T02:06:26.983Z,0.95
2023-04-17T02:08:53.545Z,0.85
2023-04-17T02:11:20.870Z,0.80
2023-04-17T02:13:47.581Z,0.85
2023-04-17T02:16:14.272Z,2.55
2023-04-17T02:18:41.374Z,1.92
2023-04-17T02:21:09.721Z,1.55
2023-04-17T02:23:36.319Z,0.80
2023-04-17T02:26:02.911Z,0.80
2023-04-17T02:28:29.713Z,0.80
2023-04-17T02:30:56.319Z,0.80
2023-04-17T02:33:22.979Z,0.57
2023-04-17T02:35:49.535Z,0.95
2023-04-17T02:38:16.036Z,0.90
2023-04-17T02:40:42.547Z,1.05
2023-04-17T02:43:09.096Z,0.73
2023-04-17T02:45:35.713Z,0.90
2023-04-17T02:48:03.018Z,0.70
2023-04-17T02:50:29.588Z,0.90
2023-04-17T02:52:56.142Z,1.48
2023-04-17T02:55:22.728Z,0.80
2023-04-17T02:57:49.231Z,1.10
2023-04-17T03:00:15.952Z,0.85
2023-04-17T03:02:42.784Z,0.70
2023-04-17T03:05:11.578Z,0.77
2023-04-17T03:07:38.273Z,1.00
2023-04-17T03:10:06.381Z,0.93
2023-04-17T03:12:33.444Z,1.05
2023-04-17T03:15:00.024Z,1.30
2023-04-17T03:17:26.710Z,1.08
2023-04-17T03:19:53.317Z,1.35
2023-04-17T03:22:19.833Z,0.90
2023-04-17T03:24:46.396Z,0.77
2023-04-17T03:27:12.928Z,0.75
2023-04-17T03:29:39.769Z,1.00
2023-04-17T03:32:06.461Z,0.80
2023-04-17T03:34:33.602Z,1.15
2023-04-17T03:37:00.285Z,1.13
2023-04-17T03:39:27.130Z,1.10
2023-04-17T03:41:53.712Z,1.10
2023-04-17T03:44:20.282Z,1.10
2023-04-17T03:46:46.841Z,1.02
2023-04-17T03:49:13.497Z,0.98
2023-04-17T03:51:40.097Z,1.50
2023-04-17T03:54:06.667Z,1.10
2023-04-17T03:56:33.352Z,1.42
2023-04-17T03:58:59.905Z,1.10
2023-04-17T04:01:28.506Z,1.10
2023-04-17T04:06:22.502Z,1.08
2023-04-17T04:08:49.532Z,0.98
2023-04-17T04:11:16.536Z,1.00
2023-04-17T04:13:43.136Z,1.02
2023-04-17T04:16:09.781Z,1.10
2023-04-17T04:18:37.353Z,1.45
2023-04-17T04:21:04.048Z,1.35
2023-04-17T04:23:30.742Z,1.50
2023-04-17T04:25:58.050Z,1.40
2023-04-17T04:28:24.619Z,1.20
2023-04-17T04:30:53.638Z,1.35
2023-04-17T04:33:20.893Z,1.30
2023-04-17T04:35:48.237Z,1.30
2023-04-17T04:38:17.240Z,1.50
2023-04-17T04:40:49.993Z,1.10
2023-04-17T04:43:16.695Z,1.40
2023-04-17T04:45:43.229Z,1.13
2023-04-17T04:48:09.809Z,1.48
2023-04-17T04:50:36.484Z,1.30
2023-04-17T04:53:03.022Z,1.40
2023-04-17T04:55:30.741Z,1.30
2023-04-17T04:57:57.615Z,1.35
2023-04-17T05:00:24.879Z,1.30
2023-04-17T05:02:51.727Z,1.55
2023-04-17T05:05:18.365Z,1.40
2023-04-17T05:07:44.880Z,1.70
2023-04-17T05:10:11.400Z,1.50
2023-04-17T05:12:37.997Z,1.30
2023-04-17T05:15:05.042Z,2.60
2023-04-17T05:17:31.697Z,1.50
2023-04-17T05:19:58.265Z,1.52
2023-04-17T05:22:24.872Z,2.35
2023-04-17T05:24:51.396Z,1.55
2023-04-17T05:27:17.941Z,1.80
2023-04-17T05:29:44.664Z,1.80
2023-04-17T05:32:12.022Z,1.65
2023-04-17T05:34:38.608Z,1.83
2023-04-17T05:37:05.502Z,2.28
2023-04-17T05:39:32.000Z,2.50
2023-04-17T05:41:58.516Z,1.85
2023-04-17T05:44:25.003Z,1.65
2023-04-17T05:46:51.525Z,1.90
2023-04-17T05:49:18.110Z,2.90
2023-04-17T05:51:44.648Z,1.73
2023-04-17T05:54:11.298Z,1.42
2023-04-17T05:56:37.833Z,1.98
2023-04-17T05:59:04.590Z,1.50
2023-04-17T06:01:31.322Z,2.15
2023-04-17T06:03:58.164Z,1.92
2023-04-17T06:06:24.888Z,1.58
2023-04-17T06:08:52.517Z,1.77
2023-04-17T06:11:19.070Z,2.10
2023-04-17T06:13:45.656Z,1.83
2023-04-17T06:16:12.587Z,2.00
2023-04-17T06:18:41.641Z,1.92
2023-04-17T06:21:08.554Z,1.80
2023-04-17T06:23:35.174Z,2.72
2023-04-17T06:26:02.538Z,2.17
2023-04-17T06:28:29.055Z,2.50
2023-04-17T06:30:55.587Z,3.47
2023-04-17T06:33:23.098Z,2.10
2023-04-17T06:35:50.767Z,2.40
2023-04-17T06:38:17.330Z,2.40
2023-04-17T06:40:44.754Z,2.20
2023-04-17T06:43:11.295Z,2.10
2023-04-17T06:45:37.957Z,2.10
2023-04-17T06:48:04.785Z,1.92
2023-04-17T06:50:31.395Z,2.10
2023-04-17T06:52:57.930Z,2.20
2023-04-17T06:55:24.485Z,1.80
2023-04-17T06:57:51.036Z,2.05
2023-04-17T07:00:17.944Z,1.80
2023-04-17T07:02:45.741Z,2.85
2023-04-17T07:05:13.251Z,2.25
2023-04-17T07:07:39.914Z,2.15
2023-04-17T07:10:07.126Z,2.53
2023-04-17T07:12:33.918Z,2.72
2023-04-17T07:15:00.472Z,2.30
2023-04-17T07:17:27.453Z,2.00
2023-04-17T07:19:54.141Z,2.08
2023-04-17T07:22:20.881Z,1.85
2023-04-17T07:24:47.378Z,2.30
2023-04-17T07:27:14.572Z,2.28
2023-04-17T07:29:41.234Z,2.30
2023-04-17T07:32:07.872Z,2.45
2023-04-17T07:34:34.444Z,2.60
2023-04-17T07:37:01.366Z,2.22
2023-04-17T07:39:31.575Z,2.72
2023-04-17T07:41:58.176Z,2.80
2023-04-17T07:44:24.784Z,2.35
2023-04-17T07:46:51.392Z,2.08
2023-04-17T07:49:18.238Z,2.53
2023-04-17T07:51:45.050Z,2.20
2023-04-17T07:54:11.563Z,2.80
2023-04-17T07:56:38.244Z,3.13
2023-04-17T07:59:04.848Z,2.92
2023-04-17T08:01:32.065Z,2.55
2023-04-17T08:03:59.134Z,3.08
2023-04-17T08:06:26.732Z,3.13
2023-04-17T08:08:53.277Z,2.78
2023-04-17T08:11:19.843Z,3.33
2023-04-17T08:13:46.436Z,2.75
2023-04-17T08:16:13.251Z,2.72
2023-04-17T08:18:41.914Z,2.75
2023-04-17T08:21:09.217Z,3.33
2023-04-17T08:23:36.035Z,2.85
2023-04-17T08:26:02.592Z,3.13
2023-04-17T08:28:29.245Z,3.17
2023-04-17T08:30:55.949Z,3.15
2023-04-17T08:33:22.713Z,3.20
2023-04-17T08:35:49.276Z,3.00
2023-04-17T08:38:15.926Z,3.45
2023-04-17T08:40:43.831Z,3.47
2023-04-17T08:43:19.569Z,3.10
2023-04-17T08:45:56.662Z,3.20
2023-04-17T08:48:24.633Z,3.40
2023-04-17T08:50:52.561Z,3.40
2023-04-17T08:53:19.946Z,3.58
2023-04-17T08:55:47.955Z,4.43
2023-04-17T08:58:15.194Z,3.83
2023-04-17T09:00:44.700Z,3.03
2023-04-17T09:03:13.719Z,3.85
2023-04-17T09:05:43.914Z,3.00
2023-04-17T09:08:17.050Z,3.42
2023-04-17T09:10:46.334Z,2.38
2023-04-17T09:13:16.494Z,3.15
2023-04-17T09:15:45.837Z,3.55
2023-04-17T09:18:27.146Z,3.67
2023-04-17T09:20:54.413Z,3.20
2023-04-17T09:23:22.800Z,3.35
2023-04-17T09:26:11.926Z,2.83
2023-04-17T09:28:39.892Z,3.42
2023-04-17T09:31:27.954Z,3.28
2023-04-17T09:33:57.865Z,3.40
2023-04-17T09:36:24.903Z,3.17
2023-04-17T09:38:51.771Z,3.75
2023-04-17T09:41:29.269Z,3.63
2023-04-17T09:44:02.036Z,2.88
2023-04-17T09:46:38.455Z,3.10
2023-04-17T09:49:15.796Z,2.90
2023-04-17T09:51:42.566Z,2.75
2023-04-17T09:54:11.752Z,3.05
2023-04-17T09:56:39.054Z,3.03
2023-04-17T09:59:06.501Z,2.95
2023-04-17T10:01:34.695Z,2.90
2023-04-17T10:04:02.472Z,2.55
2023-04-17T10:06:32.148Z,2.67
2023-04-17T10:08:58.794Z,1.88
2023-04-17T10:11:31.060Z,2.20
2023-04-17T10:14:03.704Z,2.00
2023-04-17T10:16:35.624Z,2.30
2023-04-17T10:19:24.128Z,2.10
2023-04-17T10:22:19.799Z,2.40
2023-04-17T10:24:48.982Z,2.05
2023-04-17T10:27:24.576Z,1.90
2023-04-17T10:29:59.158Z,2.05
2023-04-17T10:32:29.055Z,1.98
2023-04-17T10:35:06.332Z,2.35
2023-04-17T10:37:48.145Z,2.13
2023-04-17T10:40:21.464Z,1.85
2023-04-17T10:43:19.885Z,2.33
2023-04-17T10:46:20.422Z,3.22
2023-04-17T10:49:05.583Z,2.25
2023-04-17T10:51:49.758Z,2.53
2023-04-17T10:54:28.302Z,2.22
2023-04-17T10:57:02.292Z,2.00
2023-04-17T10:59:32.752Z,1.95
2023-04-17T11:02:01.579Z,1.88
2023-04-17T11:04:33.856Z,1.75
2023-04-17T11:07:18.950Z,2.30
2023-04-17T11:12:18.899Z,2.85
2023-04-17T11:14:45.756Z,1.75
2023-04-17T11:17:12.424Z,1.92
2023-04-17T11:19:39.229Z,2.08
2023-04-17T11:22:06.115Z,2.25
2023-04-17T11:24:32.687Z,2.15
2023-04-17T11:27:01.399Z,1.90
2023-04-17T11:29:28.272Z,1.98
2023-04-17T11:31:56.599Z,1.63
2023-04-17T11:34:25.069Z,1.80
2023-04-17T11:36:53.793Z,1.90
2023-04-17T11:39:22.760Z,1.70
2023-04-17T11:41:51.920Z,1.90
2023-04-17T11:44:20.669Z,2.22
2023-04-17T11:46:51.575Z,1.85
2023-04-17T11:49:28.477Z,1.90
2023-04-17T11:52:04.952Z,1.92
2023-04-17T11:54:37.188Z,2.05
2023-04-17T11:57:06.222Z,1.90
2023-04-17T11:59:34.674Z,2.00
2023-04-17T12:02:02.449Z,2.20
2023-04-17T12:04:30.285Z,1.98
2023-04-17T12:06:58.542Z,2.40
2023-04-17T12:09:31.286Z,1.88
2023-04-17T12:11:58.767Z,1.98
2023-04-17T12:15:26.715Z,1.75
2023-04-17T12:17:53.252Z,2.08
2023-04-17T12:20:19.795Z,1.58
2023-04-17T12:22:46.392Z,2.08
2023-04-17T12:25:12.986Z,1.83
2023-04-17T12:27:39.526Z,1.38
2023-04-17T12:30:06.825Z,1.58
2023-04-17T12:32:33.412Z,1.40
2023-04-17T12:34:59.984Z,1.50
2023-04-17T12:37:32.425Z,1.38
2023-04-17T12:39:59.451Z,1.10
2023-04-17T12:42:26.784Z,1.33
2023-04-17T12:44:57.397Z,1.23
2023-04-17T12:47:24.064Z,1.30
2023-04-17T12:49:50.666Z,1.58
2023-04-17T12:52:17.268Z,1.63
2023-04-17T12:54:43.813Z,1.33
2023-04-17T12:57:10.561Z,1.52
2023-04-17T12:59:37.126Z,1.35
2023-04-17T13:02:08.525Z,1.30
2023-04-17T13:04:44.339Z,1.67
2023-04-17T13:07:13.391Z,1.10
2023-04-17T13:09:42.777Z,1.20
2023-04-17T13:12:10.757Z,0.95
2023-04-17T13:14:39.991Z,1.55
2023-04-17T13:17:09.998Z,1.45
2023-04-17T13:19:58.953Z,1.15
2023-04-17T13:25:16.659Z,1.20
2023-04-17T13:27:43.394Z,1.10
2023-04-17T13:30:10.957Z,1.30
2023-04-17T13:32:37.630Z,1.35
2023-04-17T13:35:05.281Z,1.00
2023-04-17T13:37:32.158Z,1.15
2023-04-17T13:39:59.879Z,1.27
2023-04-17T13:42:27.068Z,1.30
2023-04-17T13:44:53.750Z,1.15
2023-04-17T13:47:20.820Z,1.55
2023-04-17T13:49:47.561Z,1.17
2023-04-17T13:52:14.454Z,1.00
2023-04-17T13:54:41.355Z,1.42
2023-04-17T13:57:09.594Z,1.20
2023-04-17T13:59:36.263Z,1.30
2023-04-17T14:02:04.235Z,1.00
2023-04-17T14:04:31.766Z,1.00
2023-04-17T14:06:58.672Z,1.30
2023-04-17T14:09:25.333Z,1.30
2023-04-17T14:11:51.939Z,1.15
2023-04-17T14:14:18.507Z,1.27
2023-04-17T14:16:47.323Z,1.08
2023-04-17T14:19:15.087Z,1.08
2023-04-17T14:21:41.983Z,1.00
2023-04-17T14:24:09.039Z,1.05
2023-04-17T14:26:36.027Z,1.10
2023-04-17T14:29:02.633Z,0.90
2023-04-17T14:31:29.258Z,0.98
2023-04-17T14:33:56.386Z,1.10
2023-04-17T14:36:22.985Z,0.90
2023-04-17T14:38:51.256Z,0.93
2023-04-17T14:41:17.932Z,1.35
2023-04-17T14:43:45.230Z,0.70
2023-04-17T14:46:11.913Z,0.95
2023-04-17T14:48:51.835Z,0.93
2023-04-17T14:53:48.690Z,1.13
2023-04-17T14:56:15.956Z,1.10
2023-04-17T14:58:43.247Z,0.93
2023-04-17T15:01:09.838Z,1.15
2023-04-17T15:03:36.546Z,1.02
2023-04-17T15:06:03.542Z,1.08
2023-04-17T15:08:33.176Z,0.90
2023-04-17T15:10:59.716Z,1.30
2023-04-17T15:13:26.683Z,1.08
2023-04-17T15:15:53.342Z,1.30
2023-04-17T15:18:19.845Z,1.20
2023-04-17T15:20:46.506Z,1.00
2023-04-17T15:23:13.129Z,1.05
2023-04-17T15:25:39.894Z,1.55
2023-04-17T15:28:07.080Z,1.52
2023-04-17T15:30:33.686Z,1.58
2023-04-17T15:33:00.391Z,1.02
2023-04-17T15:35:27.036Z,1.27
2023-04-17T15:37:53.577Z,1.10
2023-04-17T15:40:20.215Z,1.15
2023-04-17T15:42:46.781Z,1.40
2023-04-17T15:45:13.420Z,1.52
2023-04-17T15:47:40.097Z,1.52
2023-04-17T15:50:08.149Z,1.25
2023-04-17T15:52:34.790Z,1.10
2023-04-17T15:55:01.352Z,1.20
2023-04-17T15:57:27.923Z,1.00
2023-04-17T15:59:54.476Z,1.33
2023-04-17T16:02:21.504Z,1.65
2023-04-17T16:04:48.356Z,1.00
2023-04-17T16:07:16.459Z,1.40
2023-04-17T16:09:44.659Z,1.25
2023-04-17T16:12:11.287Z,1.30
2023-04-17T16:14:38.332Z,1.27
2023-04-17T16:17:04.994Z,1.40
2023-04-17T16:19:32.573Z,1.50
2023-04-17T16:21:59.494Z,1.38
2023-04-17T16:24:26.419Z,1.40
2023-04-17T16:27:01.264Z,1.10
2023-04-17T16:29:27.970Z,1.27
2023-04-17T16:31:55.488Z,1.10
2023-04-17T16:34:22.460Z,1.30
2023-04-17T16:36:49.565Z,1.35
2023-04-17T16:39:16.154Z,1.55
2023-04-17T16:41:43.386Z,1.60
2023-04-17T16:44:09.947Z,1.20
2023-04-17T16:46:52.251Z,1.27
2023-04-17T16:49:23.239Z,1.30
2023-04-17T16:51:49.994Z,1.60
2023-04-17T16:54:16.709Z,1.67
2023-04-17T16:56:43.288Z,1.30
2023-04-17T16:59:09.796Z,1.63
2023-04-17T17:01:36.332Z,1.20
2023-04-17T17:04:03.180Z,1.50
2023-04-17T17:06:29.807Z,1.55
2023-04-17T17:08:56.357Z,1.45
2023-04-17T17:11:23.405Z,1.40
2023-04-17T17:13:50.818Z,1.85
2023-04-17T17:16:18.981Z,1.42
2023-04-17T17:18:46.108Z,1.27
2023-04-17T17:21:12.996Z,1.40
2023-04-17T17:23:39.826Z,1.10
2023-04-17T17:26:06.481Z,1.13
2023-04-17T17:28:33.994Z,1.10
2023-04-17T17:31:02.351Z,1.35
2023-04-17T17:33:29.759Z,1.10
2023-04-17T17:35:56.940Z,1.17
2023-04-17T17:38:24.110Z,1.00
2023-04-17T17:40:53.992Z,1.30
2023-04-17T17:43:20.647Z,1.55
2023-04-17T17:45:47.329Z,1.17
2023-04-17T17:48:15.701Z,1.48
2023-04-17T17:50:43.238Z,1.33
2023-04-17T17:53:10.587Z,1.50
2023-04-17T17:55:38.130Z,1.30
2023-04-17T17:58:06.014Z,1.15
2023-04-17T18:00:32.888Z,1.55
2023-04-17T18:03:00.041Z,1.33
2023-04-17T18:05:26.807Z,1.33
2023-04-17T18:07:53.416Z,1.60
2023-04-17T18:10:19.997Z,1.55
2023-04-17T18:12:46.616Z,1.10
2023-04-17T18:15:13.208Z,1.48
2023-04-17T18:17:39.939Z,1.45
2023-04-17T18:20:07.525Z,2.03
2023-04-17T18:22:34.124Z,2.35
2023-04-17T18:25:00.920Z,1.70
2023-04-17T18:27:27.447Z,1.90
2023-04-17T18:29:53.951Z,1.77
2023-04-17T18:32:20.571Z,1.90
2023-04-17T18:34:49.283Z,2.05
2023-04-17T18:37:17.987Z,1.42
2023-04-17T18:39:45.099Z,1.55
2023-04-17T18:42:11.700Z,1.95
2023-04-17T18:44:38.784Z,2.10
2023-04-17T18:47:06.012Z,2.38
2023-04-17T18:49:32.547Z,1.88
2023-04-17T18:51:59.078Z,2.17
2023-04-17T18:54:25.817Z,2.38
2023-04-17T18:56:52.401Z,2.08
2023-04-17T18:59:22.024Z,1.95
2023-04-17T19:01:48.606Z,2.35
2023-04-17T19:04:15.416Z,2.45
2023-04-17T19:06:42.249Z,2.25
2023-04-17T19:09:09.157Z,2.70
2023-04-17T19:11:35.803Z,2.75
2023-04-17T19:14:02.391Z,2.97
2023-04-17T19:16:29.139Z,2.90
2023-04-17T19:18:56.706Z,3.13
2023-04-17T19:21:23.252Z,2.42
2023-04-17T19:23:51.385Z,3.35
2023-04-17T19:26:17.954Z,2.85
2023-04-17T19:28:44.564Z,2.97
2023-04-17T19:31:11.455Z,3.58
2023-04-17T19:33:38.351Z,3.38
2023-04-17T19:36:04.977Z,3.25
2023-04-17T19:38:31.712Z,3.50
2023-04-17T19:41:17.522Z,4.18
2023-04-17T19:43:51.700Z,4.32
2023-04-17T19:46:19.569Z,4.13
2023-04-17T19:48:47.393Z,4.40
2023-04-17T19:51:15.093Z,5.03
2023-04-17T19:53:43.715Z,4.15
2023-04-17T19:56:10.945Z,4.07
2023-04-17T19:58:38.458Z,4.63
2023-04-17T20:01:05.166Z,5.05
2023-04-17T20:03:32.629Z,6.00
2023-04-17T20:05:59.903Z,6.03
2023-04-17T20:08:26.703Z,4.25
2023-04-17T20:10:53.505Z,3.95
2023-04-17T20:13:20.247Z,4.28
2023-04-17T20:15:46.936Z,4.13
2023-04-17T20:18:14.366Z,3.17
2023-04-17T20:20:41.085Z,3.70
2023-04-17T20:23:07.666Z,2.63
2023-04-17T20:25:34.249Z,2.88
2023-04-17T20:28:02.803Z,2.55
2023-04-17T20:30:29.836Z,2.92
2023-04-17T20:32:56.843Z,2.63
2023-04-17T20:35:24.608Z,2.50
2023-04-17T20:37:51.941Z,3.17
2023-04-17T20:40:19.498Z,3.05
2023-04-17T20:42:46.852Z,3.30
2023-04-17T20:45:13.990Z,3.30
2023-04-17T20:47:55.409Z,3.05
2023-04-17T20:50:23.818Z,3.10
2023-04-17T20:52:50.602Z,2.92
2023-04-17T20:55:18.894Z,3.22
2023-04-17T20:57:46.416Z,2.90
2023-04-17T21:00:13.329Z,3.08
2023-04-17T21:02:40.011Z,2.58
2023-04-17T21:05:08.053Z,2.95
2023-04-17T21:07:34.863Z,3.42
2023-04-17T21:10:01.659Z,3.47
2023-04-17T21:12:28.254Z,3.55
2023-04-17T21:14:54.820Z,4.00
2023-04-17T21:17:21.662Z,3.45
2023-04-17T21:19:49.322Z,3.53
2023-04-17T21:22:16.739Z,2.75
2023-04-17T21:24:43.406Z,3.25
2023-04-17T21:27:10.492Z,3.53
2023-04-17T21:29:37.571Z,3.47
2023-04-17T21:32:04.277Z,3.13
2023-04-17T21:34:30.902Z,3.35
2023-04-17T21:36:59.664Z,4.57
2023-04-17T21:39:26.205Z,4.60
2023-04-17T21:41:52.721Z,3.83
2023-04-17T21:44:19.285Z,3.75
2023-04-17T21:46:48.809Z,4.00
2023-04-17T21:49:15.440Z,3.67
2023-04-17T21:51:42.045Z,4.07
2023-04-17T21:54:09.884Z,3.70
2023-04-17T21:56:36.757Z,3.80
2023-04-17T21:59:03.861Z,4.90
2023-04-17T22:01:30.484Z,3.50
2023-04-17T22:03:57.173Z,3.75
2023-04-17T22:06:24.199Z,4.07
2023-04-17T22:08:51.170Z,3.70
2023-04-17T22:11:17.805Z,3.45
2023-04-17T22:13:45.098Z,3.67
2023-04-17T22:16:11.887Z,4.15
2023-04-17T22:18:38.557Z,4.00
2023-04-17T22:21:05.554Z,4.07
2023-04-17T22:23:32.077Z,4.03
2023-04-17T22:25:58.653Z,4.57
2023-04-17T22:28:28.233Z,5.07
2023-04-17T22:30:54.836Z,4.45
2023-04-17T22:33:22.036Z,4.50
2023-04-17T22:35:49.827Z,5.20
2023-04-17T22:38:18.119Z,4.55
2023-04-17T22:40:44.640Z,5.10
2023-04-17T22:43:11.211Z,5.05
2023-04-17T22:45:37.908Z,4.82
2023-04-17T22:48:04.634Z,4.45
2023-04-17T22:50:32.292Z,3.72
2023-04-17T22:52:58.808Z,3.50
2023-04-17T22:55:25.476Z,3.70
2023-04-17T22:57:52.700Z,3.80
2023-04-17T23:00:20.281Z,3.53
2023-04-17T23:02:47.508Z,3.78
2023-04-17T23:05:14.419Z,3.53
2023-04-17T23:07:41.192Z,4.10
2023-04-17T23:10:08.238Z,3.95
2023-04-17T23:12:35.029Z,4.38
2023-04-17T23:15:01.746Z,4.15
2023-04-17T23:17:28.312Z,4.32
2023-04-17T23:19:55.703Z,3.83
2023-04-17T23:22:22.383Z,3.95
2023-04-17T23:24:48.979Z,4.97
2023-04-17T23:27:15.513Z,4.22
2023-04-17T23:29:42.057Z,3.88
2023-04-17T23:32:08.710Z,4.63
2023-04-17T23:34:35.819Z,5.25
2023-04-17T23:37:02.807Z,4.43
2023-04-17T23:39:29.476Z,4.20
2023-04-17T23:41:57.657Z,4.80
2023-04-17T23:44:24.261Z,4.95
2023-04-17T23:46:51.432Z,4.95
2023-04-17T23:49:18.125Z,5.05
2023-04-17T23:51:44.885Z,4.10
2023-04-17T23:54:11.850Z,5.38
2023-04-17T23:56:38.700Z,4.68
2023-04-17T23:59:05.338Z,4.10
